Terminal Aerodrome Forecast
Issued by NWS

Home | Current Version | Previous Version | Text Only | Print | Product List | Glossary On
Versions: 1 2 3 4 5 6 7 8 9 10 11 12 13
000
FTAK31 PAJN 242300
TAFAWG
TAF
PAWG 242336Z 2500/2524 23005KT P6SM VCSH SCT025 OVC035
     FM250900 VRB04KT P6SM -SHRA SCT015 BKN050
      AMD LTD TO CLD VIS AND WIND 2506/2515=

USA.gov is the U.S. government's official web portal to all federal, state and local government web resources and services.